Maldives Meteorological Service

TAFS

Station TAF
VRMM
VRMM 120500Z 1206/1312 22005KT 9999 SCT017TCU BKN100 TEMPO 1206/1212 4000 TSRA SCT016CB=
VRMH
VRMH 120500Z 1206/1312 32005KT 9999 SCT017TCU SCT110 TEMPO 1207/1212 4000 TSRA SCT017CB=
VRMK
VRMK 120500Z 1206/1306 15006KT 9999 SCT017TCU TEMPO 1206/1212 27018G30KT 3000 TSRA SCT017CB=
VRMT
VRMT 120500Z 1200/1306 12006KT 9999 FEW018TCU TEMPO 1207/1212 5000 -TSRA FEW017CB=
VRMG
VRMG 120500Z 1206/1312 16008KT 9999 FEW018TCU TEMPO 1206/1212 5000 -TSRA FEW017CB=